Aviation Digital Data Service (ADDS)

Output produced by METARs form (0253 UTC 06 July 2015)
found at http://aviationweather.gov/adds/metars/
 
KIAG 052340Z 0600/0624 20006KT P6SM SCT250 
     FM060300 VRB03KT P6SM SCT250 
     FM061400 VRB03KT P6SM SCT100 BKN250 
     FM062000 15006KT P6SM VCSH BKN060